LEPA/PMI METAR and TAF weather

Enter ICAO airport designator
Station Type Date Time Source
LEPA METAR 2022/01/26 07:30 UTC NOAA

LEPA 260730Z 02003KT 340V070 CAVOK 02/01 Q1031 NOSIG


Station Type Date Time Source
LEPA Decoded METAR 2022/01/26 07:30 UTC NOAA

Palma De Mallorca / Son San Juan, Spain (LEPA) 39-33N 002-44E 8M
Jan 26, 2022 - 02:30 AM EST / 2022.01.26 0730 UTC
Wind: from the NNE (020 degrees) at 3 MPH (3 KT) (direction variable):0
Visibility: greater than 7 mile(s):0
Temperature: 35 F (2 C)
Dew Point: 33 F (1 C)
Relative Humidity: 93%
Pressure (altimeter): 30.45 in. Hg (1031 hPa)
ob: LEPA 260730Z 02003KT 340V070 CAVOK 02/01 Q1031 NOSIG
cycle: 7

Station Type Date Time Source
LEPA TAF 2022/01/26 06:27 UTC NOAA

TAF TAF LEPA 260500Z 2606/2706 04004KT 9999 FEW020 TX16/2613Z TNM00/2606Z PROB30
TEMPO 2606/2608 4000 BR
TEMPO 2612/2618 19007KT

Example: see airport list